Time;durP1;ratioP1;P1;durP2;ratioP2;P2;SDS_P1;SDS_P2;PMS_P1;PMS_P2;Temp;Humidity;BMP_temperature;BMP_pressure;BME280_temperature;BME280_humidity;BME280_pressure;Samples;Min_cycle;Max_cycle;Signal;HPM_P1;HPM_P2
2021/12/04 00:02:05;;;;;;;3.33;2.80;;;5.20;1.00;;;;;;5049096;28;20566;-54
2021/12/04 00:04:34;;;;;;;3.20;2.70;;;5.40;1.00;;;;;;5048957;28;20450;-55
2021/12/04 00:07:00;;;;;;;4.97;3.83;;;5.30;1.00;;;;;;5050781;28;20474;-55
2021/12/04 00:09:25;;;;;;;3.50;2.93;;;5.30;1.00;;;;;;5052333;28;20447;-54
2021/12/04 00:11:54;;;;;;;3.47;3.03;;;5.30;1.00;;;;;;5051525;28;20192;-54
2021/12/04 00:14:20;;;;;;;4.57;3.53;;;5.30;1.00;;;;;;5048512;28;20553;-53
2021/12/04 00:16:46;;;;;;;5.10;3.47;;;5.20;1.00;;;;;;5049527;28;20458;-54
2021/12/04 00:19:13;;;;;;;4.70;4.07;;;5.30;1.00;;;;;;5051115;28;20191;-55
2021/12/04 00:21:40;;;;;;;4.70;4.30;;;5.20;1.00;;;;;;5048216;28;20480;-53
2021/12/04 00:24:05;;;;;;;6.97;4.50;;;5.20;1.00;;;;;;5052093;28;20439;-54
2021/12/04 00:26:31;;;;;;;6.60;5.67;;;5.10;1.00;;;;;;5051912;28;20554;-55
2021/12/04 00:28:57;;;;;;;6.07;4.83;;;5.10;1.00;;;;;;5050074;28;20188;-54
2021/12/04 00:31:22;;;;;;;7.60;5.53;;;5.10;1.00;;;;;;5053299;28;20185;-54
2021/12/04 00:33:49;;;;;;;7.20;5.70;;;5.10;1.00;;;;;;5049576;28;20203;-54
2021/12/04 00:50:14;;;;;;;6.80;5.10;;;5.10;1.00;;;;;;5028649;28;20455;-54
2021/12/04 00:52:39;;;;;;;7.27;4.90;;;5.20;1.00;;;;;;5046319;28;20477;-53
2021/12/04 00:55:05;;;;;;;5.93;5.33;;;5.20;1.00;;;;;;5052728;28;20502;-54
2021/12/04 00:57:32;;;;;;;7.90;5.63;;;5.10;1.00;;;;;;5053053;28;20189;-54
2021/12/04 00:59:57;;;;;;;6.03;4.90;;;5.20;1.00;;;;;;5057967;28;20461;-55
2021/12/04 01:02:23;;;;;;;7.73;4.87;;;5.20;1.00;;;;;;5050475;28;20447;-53
2021/12/04 01:04:49;;;;;;;7.80;5.00;;;5.20;1.00;;;;;;5049095;28;20455;-54
2021/12/04 01:07:15;;;;;;;6.43;5.80;;;5.10;1.00;;;;;;5050228;28;20494;-55
2021/12/04 01:09:42;;;;;;;5.80;5.20;;;5.10;1.00;;;;;;5049044;28;20453;-53
2021/12/04 01:12:09;;;;;;;7.23;5.30;;;5.10;1.00;;;;;;5049862;28;20212;-55
2021/12/04 01:14:35;;;;;;;6.57;5.20;;;5.00;1.00;;;;;;5046499;28;20465;-54
2021/12/04 01:17:01;;;;;;;8.13;6.23;;;;;;;;;;5046901;28;20451;-53
2021/12/04 01:19:29;;;;;;;5.87;5.27;;;5.00;1.00;;;;;;5048423;28;20421;-56
2021/12/04 01:21:54;;;;;;;6.77;5.97;;;4.90;1.00;;;;;;5047916;28;20509;-54
2021/12/04 01:24:21;;;;;;;7.80;6.40;;;4.90;1.00;;;;;;5035573;28;20482;-54
2021/12/04 01:26:48;;;;;;;9.73;5.97;;;5.00;1.00;;;;;;5056178;28;20227;-54
2021/12/04 01:29:14;;;;;;;8.20;6.23;;;5.00;1.00;;;;;;5049554;28;20467;-54
2021/12/04 01:31:40;;;;;;;8.60;5.83;;;5.00;1.00;;;;;;5052358;28;20881;-53
2021/12/04 01:34:06;;;;;;;15.73;6.60;;;5.10;1.00;;;;;;5050450;28;20508;-54
2021/12/04 01:36:33;;;;;;;6.07;5.20;;;5.10;1.00;;;;;;5048983;28;20446;-54
2021/12/04 01:39:00;;;;;;;7.90;5.50;;;5.10;1.00;;;;;;5049081;28;20800;-54
2021/12/04 01:41:26;;;;;;;8.20;5.70;;;5.10;1.00;;;;;;5053535;28;20473;-55
2021/12/04 01:43:52;;;;;;;6.90;5.27;;;5.20;1.00;;;;;;5051880;28;20451;-54
2021/12/04 01:46:18;;;;;;;5.93;5.33;;;5.30;1.00;;;;;;5049682;28;20448;-54
2021/12/04 01:48:44;;;;;;;8.10;5.00;;;5.20;1.00;;;;;;5047679;28;20542;-55
2021/12/04 01:51:09;;;;;;;7.03;5.40;;;5.20;1.00;;;;;;5050412;28;20533;-56
2021/12/04 01:53:35;;;;;;;7.47;5.67;;;5.20;1.00;;;;;;5051796;28;20570;-53
2021/12/04 01:56:01;;;;;;;6.87;5.17;;;5.00;1.00;;;;;;5046248;28;20388;-54
2021/12/04 01:58:28;;;;;;;6.10;5.03;;;5.00;1.00;;;;;;5047481;28;20189;-53
2021/12/04 02:00:54;;;;;;;6.23;4.77;;;5.00;1.00;;;;;;5048420;28;20453;-54
2021/12/04 02:03:20;;;;;;;4.60;3.87;;;5.10;1.00;;;;;;5049003;28;20529;-54
2021/12/04 02:05:47;;;;;;;4.77;4.27;;;5.10;1.00;;;;;;5049537;28;20266;-53
2021/12/04 02:08:17;;;;;;;6.97;4.70;;;5.00;1.00;;;;;;5046410;28;20516;-54
2021/12/04 02:10:45;;;;;;;6.00;4.37;;;5.00;1.00;;;;;;5048309;28;20450;-53
2021/12/04 02:13:11;;;;;;;7.00;4.90;;;5.00;1.00;;;;;;5047780;28;20956;-53
2021/12/04 02:15:36;;;;;;;4.97;4.47;;;5.00;1.00;;;;;;5048395;28;20572;-54
2021/12/04 02:18:05;;;;;;;7.47;5.20;;;5.10;1.00;;;;;;5043354;28;20273;-55
2021/12/04 02:20:33;;;;;;;7.33;4.93;;;5.00;1.00;;;;;;5047355;28;20216;-55
2021/12/04 02:23:00;;;;;;;5.80;5.20;;;5.00;1.00;;;;;;5050503;28;20853;-55
2021/12/04 02:25:25;;;;;;;7.53;5.70;;;5.00;1.00;;;;;;5051231;28;20485;-54
2021/12/04 02:27:51;;;;;;;6.87;5.40;;;5.00;1.00;;;;;;5053212;28;20570;-54
2021/12/04 02:30:23;;;;;;;6.50;5.60;;;5.00;1.00;;;;;;5050300;28;20193;-55
2021/12/04 02:32:50;;;;;;;8.40;5.80;;;5.00;1.00;;;;;;5048611;28;20443;-53
2021/12/04 02:35:17;;;;;;;5.50;4.97;;;5.00;1.00;;;;;;5048520;28;20799;-56
2021/12/04 02:37:43;;;;;;;7.80;5.90;;;5.00;1.00;;;;;;5046931;28;20972;-54
2021/12/04 02:40:11;;;;;;;6.70;5.20;;;5.00;1.00;;;;;;5047641;28;21054;-54
2021/12/04 02:42:37;;;;;;;6.50;5.37;;;5.00;1.00;;;;;;5048869;28;20462;-54
2021/12/04 02:45:06;;;;;;;9.70;6.07;;;5.00;1.00;;;;;;5047110;28;20475;-55
2021/12/04 02:47:32;;;;;;;7.10;5.43;;;5.00;1.00;;;;;;5043885;28;20457;-54
2021/12/04 02:49:59;;;;;;;7.10;5.80;;;5.00;1.00;;;;;;5049031;28;20446;-54
2021/12/04 02:52:25;;;;;;;5.60;5.10;;;5.00;1.00;;;;;;5044165;28;20493;-55
2021/12/04 02:54:51;;;;;;;9.90;6.43;;;5.00;1.00;;;;;;5048151;28;20637;-54
2021/12/04 02:57:18;;;;;;;7.63;6.00;;;5.00;1.00;;;;;;5047465;28;20798;-55
2021/12/04 02:59:45;;;;;;;9.10;5.50;;;5.00;1.00;;;;;;5044040;28;20483;-54
2021/12/04 03:02:24;;;;;;;7.80;6.10;;;5.00;1.00;;;;;;5046702;28;20455;-54
2021/12/04 03:04:53;;;;;;;8.63;6.10;;;4.90;1.00;;;;;;5046274;28;20538;-54
2021/12/04 03:07:20;;;;;;;6.57;5.60;;;4.90;1.00;;;;;;5046430;28;20589;-53
2021/12/04 03:09:47;;;;;;;7.20;5.53;;;4.90;1.00;;;;;;5059069;28;20456;-54
2021/12/04 03:12:15;;;;;;;7.33;6.10;;;4.90;1.00;;;;;;5046199;28;20795;-54
2021/12/04 03:14:41;;;;;;;6.37;5.67;;;4.90;1.00;;;;;;5049684;28;20449;-55
2021/12/04 03:17:07;;;;;;;6.20;5.60;;;4.90;1.00;;;;;;5048129;28;20486;-54
2021/12/04 03:19:34;;;;;;;7.23;6.03;;;4.90;1.00;;;;;;5049682;28;20199;-54
2021/12/04 03:22:02;;;;;;;9.10;6.37;;;;;;;;;;5046111;28;20564;-54
2021/12/04 03:24:28;;;;;;;10.20;5.90;;;4.90;1.00;;;;;;5050280;28;20792;-55
2021/12/04 03:26:55;;;;;;;7.40;5.93;;;4.90;1.00;;;;;;5043174;28;20453;-55
2021/12/04 03:29:24;;;;;;;9.73;6.33;;;4.80;1.00;;;;;;5046808;28;20442;-55
2021/12/04 03:32:14;;;;;;;7.13;5.70;;;4.90;1.00;;;;;;5056082;28;20450;-54
2021/12/04 03:42:48;;;;;;;7.77;6.07;;;4.90;1.00;;;;;;5055814;28;20450;-55
2021/12/04 03:45:14;;;;;;;9.57;6.70;;;4.90;1.00;;;;;;5045812;28;20737;-55
2021/12/04 03:47:44;;;;;;;6.30;5.30;;;4.90;1.00;;;;;;5058550;28;20999;-53
2021/12/04 03:50:10;;;;;;;9.93;6.77;;;4.90;1.00;;;;;;5050533;28;20192;-53
2021/12/04 03:52:36;;;;;;;8.10;6.63;;;4.90;1.00;;;;;;5052524;28;20442;-54
2021/12/04 03:55:05;;;;;;;8.50;6.07;;;5.00;1.00;;;;;;5052528;28;20536;-53
2021/12/04 03:57:31;;;;;;;10.60;7.00;;;5.00;1.00;;;;;;5049465;28;20535;-54
2021/12/04 03:59:59;;;;;;;9.40;7.87;;;4.90;1.00;;;;;;5044685;28;20936;-53
2021/12/04 04:02:25;;;;;;;8.00;6.67;;;5.00;1.00;;;;;;5047615;28;20442;-53
2021/12/04 04:04:52;;;;;;;9.30;6.87;;;4.90;1.00;;;;;;5052350;28;20459;-56
2021/12/04 04:07:18;;;;;;;6.90;6.20;;;4.90;1.00;;;;;;5048459;28;20455;-54
2021/12/04 04:09:44;;;;;;;7.77;6.40;;;4.90;1.00;;;;;;5052104;28;20479;-54
2021/12/04 04:12:10;;;;;;;9.80;6.60;;;4.90;1.00;;;;;;5047246;28;20189;-54
2021/12/04 04:14:37;;;;;;;8.30;6.30;;;4.90;1.00;;;;;;5049491;28;20191;-55
2021/12/04 04:17:03;;;;;;;6.70;6.07;;;4.90;1.00;;;;;;5045850;28;20554;-54
2021/12/04 04:19:29;;;;;;;9.97;6.97;;;4.90;1.00;;;;;;5049723;28;20451;-54
2021/12/04 04:21:57;;;;;;;7.93;5.80;;;4.90;1.00;;;;;;5047492;28;20462;-54
2021/12/04 04:24:25;;;;;;;7.63;6.37;;;4.90;1.00;;;;;;5051766;28;20181;-55
2021/12/04 04:26:51;;;;;;;6.87;5.87;;;4.90;1.00;;;;;;5054946;28;20476;-54
2021/12/04 04:29:17;;;;;;;8.13;6.83;;;4.90;1.00;;;;;;5051734;28;20812;-53
2021/12/04 04:31:49;;;;;;;8.63;5.90;;;4.90;1.00;;;;;;5054037;28;20451;-55
2021/12/04 04:34:23;;;;;;;9.23;6.13;;;4.90;1.00;;;;;;5046630;28;20508;-55
2021/12/04 05:12:53;;;;;;;7.03;5.33;;;4.90;1.00;;;;;;5045697;28;20478;-56
2021/12/04 05:15:57;;;;;;;8.70;6.33;;;4.90;1.00;;;;;;5048888;28;20482;-55
2021/12/04 05:18:23;;;;;;;9.10;6.60;;;4.70;1.00;;;;;;5048858;28;20841;-53
2021/12/04 05:20:54;;;;;;;7.87;6.13;;;4.80;1.00;;;;;;5051124;28;20513;-54
2021/12/04 05:23:21;;;;;;;10.13;7.80;;;4.60;1.00;;;;;;5049568;28;20449;-53
2021/12/04 05:25:47;;;;;;;7.50;6.70;;;4.50;1.00;;;;;;5049840;28;20456;-54
2021/12/04 05:28:12;;;;;;;9.63;8.00;;;4.40;1.00;;;;;;5043398;28;20453;-53
2021/12/04 05:30:38;;;;;;;12.50;7.20;;;4.40;1.00;;;;;;5055421;28;20223;-55
2021/12/04 05:33:05;;;;;;;10.67;7.27;;;4.40;1.00;;;;;;5048556;28;20196;-53
2021/12/04 05:35:32;;;;;;;9.90;8.13;;;4.30;1.00;;;;;;5046737;28;20449;-55
2021/12/04 05:37:57;;;;;;;11.23;7.47;;;4.20;1.00;;;;;;5051416;28;20448;-53
2021/12/04 05:40:23;;;;;;;9.90;7.00;;;4.20;1.00;;;;;;5052603;28;21042;-54
2021/12/04 05:42:49;;;;;;;10.23;7.50;;;4.10;1.00;;;;;;5049149;28;20450;-52
2021/12/04 05:45:21;;;;;;;11.53;7.47;;;4.10;1.00;;;;;;5046520;28;20516;-55
2021/12/04 05:50:54;;;;;;;8.67;7.13;;;3.90;1.00;;;;;;5054392;28;20495;-54
2021/12/04 05:53:23;;;;;;;12.10;8.37;;;3.80;1.00;;;;;;5049141;28;20459;-55
2021/12/04 05:55:58;;;;;;;9.50;6.63;;;3.70;1.00;;;;;;5050031;28;20458;-57
2021/12/04 05:58:31;;;;;;;11.73;7.67;;;3.80;1.00;;;;;;5053031;28;20887;-55
2021/12/04 06:01:04;;;;;;;12.20;7.77;;;3.80;1.00;;;;;;5047098;28;20481;-54
2021/12/04 06:03:30;;;;;;;9.63;7.33;;;3.70;1.00;;;;;;5046917;28;20452;-55
2021/12/04 06:05:56;;;;;;;10.57;7.60;;;3.70;1.00;;;;;;5047163;28;20445;-54
2021/12/04 06:08:21;;;;;;;12.03;8.20;;;3.70;1.00;;;;;;5047724;28;20239;-54
2021/12/04 06:10:48;;;;;;;14.50;8.93;;;3.70;1.00;;;;;;5050648;28;20453;-53
2021/12/04 06:13:14;;;;;;;11.93;7.90;;;3.70;1.00;;;;;;5049003;28;20208;-55
2021/12/04 06:15:40;;;;;;;10.47;7.90;;;3.60;1.00;;;;;;5043143;28;20460;-54
2021/12/04 06:18:07;;;;;;;16.00;9.70;;;3.70;1.00;;;;;;5044557;28;21095;-54
2021/12/04 06:23:28;;;;;;;10.87;8.70;;;3.60;1.00;;;;;;5046913;28;20574;-54
2021/12/04 06:25:54;;;;;;;14.67;8.13;;;;;;;;;;5052028;28;20987;-54
2021/12/04 06:28:20;;;;;;;13.60;9.17;;;3.60;1.00;;;;;;5049382;28;20439;-53
2021/12/04 06:30:46;;;;;;;12.97;9.47;;;3.60;1.00;;;;;;5051168;28;20920;-53
2021/12/04 06:33:15;;;;;;;11.37;8.50;;;3.60;1.00;;;;;;5053829;28;20445;-53
2021/12/04 06:35:42;;;;;;;17.70;10.10;;;3.50;1.00;;;;;;5050581;28;20452;-54
2021/12/04 06:38:09;;;;;;;12.07;9.90;;;3.50;1.00;;;;;;5049448;28;20928;-55
2021/12/04 06:40:36;;;;;;;12.30;9.20;;;3.60;1.00;;;;;;5046391;28;20556;-54
2021/12/04 06:43:03;;;;;;;12.90;8.93;;;3.50;1.00;;;;;;5049291;28;20588;-55
2021/12/04 06:45:30;;;;;;;13.93;9.10;;;3.50;1.00;;;;;;5047233;28;20458;-52
2021/12/04 06:47:59;;;;;;;12.00;9.40;;;3.50;1.00;;;;;;5051286;28;20432;-55
2021/12/04 06:50:39;;;;;;;11.20;8.93;;;3.50;1.00;;;;;;5048936;28;20439;-55
2021/12/04 06:53:42;;;;;;;12.13;8.80;;;3.50;1.00;;;;;;5048229;28;20479;-55
2021/12/04 06:56:00;;;;;;;13.60;9.80;;;3.50;1.00;;;;;;5049311;28;20471;-54
2021/12/04 06:58:28;;;;;;;11.90;8.97;;;3.50;1.00;;;;;;5048347;28;20445;-55
2021/12/04 07:00:54;;;;;;;15.97;9.60;;;3.50;1.00;;;;;;5048204;28;20636;-54
2021/12/04 07:03:21;;;;;;;12.03;8.53;;;3.60;1.00;;;;;;5048580;28;20442;-54
2021/12/04 07:05:46;;;;;;;12.93;9.43;;;3.50;1.00;;;;;;5047503;28;20452;-55
2021/12/04 07:08:12;;;;;;;9.77;7.80;;;3.50;1.00;;;;;;5050537;28;20437;-55
2021/12/04 07:10:38;;;;;;;9.37;7.90;;;3.60;1.00;;;;;;5063332;28;20199;-60
2021/12/04 07:13:05;;;;;;;9.20;7.60;;;3.60;1.00;;;;;;5054770;28;20569;-57
2021/12/04 07:15:31;;;;;;;9.77;7.70;;;3.50;1.00;;;;;;5056432;28;20239;-57
2021/12/04 07:17:58;;;;;;;8.27;6.80;;;3.60;1.00;;;;;;5055054;28;20433;-58
2021/12/04 07:20:24;;;;;;;8.03;6.50;;;3.60;1.00;;;;;;5053525;28;20960;-57
2021/12/04 07:22:50;;;;;;;7.73;6.57;;;3.60;1.00;;;;;;5055080;28;20449;-56
2021/12/04 07:25:16;;;;;;;7.63;6.50;;;3.60;1.00;;;;;;5054505;28;20437;-56
2021/12/04 07:27:41;;;;;;;6.43;5.70;;;3.50;1.00;;;;;;5065463;28;20472;-55
2021/12/04 07:30:08;;;;;;;7.63;6.53;;;3.50;1.00;;;;;;5053038;28;20182;-55
2021/12/04 07:32:35;;;;;;;8.87;6.30;;;3.50;1.00;;;;;;5056616;28;20580;-55
2021/12/04 07:35:01;;;;;;;8.53;5.73;;;3.40;1.00;;;;;;5051330;28;20445;-55
2021/12/04 07:37:26;;;;;;;6.97;6.20;;;3.50;1.00;;;;;;5059347;28;20430;-57
2021/12/04 07:39:52;;;;;;;9.17;6.83;;;3.50;1.00;;;;;;5052711;28;20175;-56
2021/12/04 07:42:18;;;;;;;7.37;6.57;;;3.40;1.00;;;;;;5053352;28;20211;-56
2021/12/04 07:44:43;;;;;;;8.17;5.80;;;3.50;1.00;;;;;;5055077;28;20271;-56
2021/12/04 07:47:09;;;;;;;7.93;6.10;;;3.40;1.00;;;;;;5056108;28;20199;-58
2021/12/04 07:49:37;;;;;;;6.30;5.70;;;;;;;;;;5055632;28;20179;-54
2021/12/04 07:52:05;;;;;;;7.30;6.43;;;3.40;1.00;;;;;;5052787;28;20433;-57
2021/12/04 07:54:30;;;;;;;7.17;5.77;;;3.40;1.00;;;;;;5055641;28;20442;-57
2021/12/04 07:56:56;;;;;;;7.77;5.40;;;3.30;1.00;;;;;;5052210;28;20989;-56
2021/12/04 07:59:21;;;;;;;7.30;5.80;;;3.40;1.00;;;;;;5051981;28;20203;-57
2021/12/04 08:01:47;;;;;;;5.87;4.80;;;3.50;1.00;;;;;;5052551;28;20244;-57
2021/12/04 08:04:12;;;;;;;8.07;6.03;;;3.50;1.00;;;;;;5057161;28;20282;-56
2021/12/04 08:06:38;;;;;;;7.13;6.00;;;3.50;1.00;;;;;;5035807;28;20655;-55
2021/12/04 08:09:03;;;;;;;6.67;5.80;;;3.50;1.00;;;;;;5058146;28;20177;-55
2021/12/04 08:11:29;;;;;;;7.77;5.67;;;3.50;1.00;;;;;;5061060;28;20186;-54
2021/12/04 08:13:55;;;;;;;8.43;5.07;;;3.60;1.00;;;;;;5055289;28;20177;-56
2021/12/04 08:16:24;;;;;;;7.93;5.87;;;3.60;1.00;;;;;;5053396;28;20190;-55
2021/12/04 08:18:52;;;;;;;6.00;4.83;;;3.60;1.00;;;;;;5052847;28;20347;-58
2021/12/04 08:21:17;;;;;;;6.10;5.17;;;3.60;1.00;;;;;;5054284;28;20970;-57
2021/12/04 08:23:43;;;;;;;7.67;5.37;;;3.70;1.00;;;;;;5057575;28;20462;-58
2021/12/04 08:26:09;;;;;;;5.97;5.37;;;;;;;;;;5055645;28;20226;-56
2021/12/04 08:28:35;;;;;;;7.97;5.57;;;3.80;1.00;;;;;;5054011;28;20223;-55
2021/12/04 08:31:00;;;;;;;6.50;5.10;;;3.80;1.00;;;;;;5048756;28;20446;-56
2021/12/04 08:33:26;;;;;;;7.10;5.07;;;3.80;1.00;;;;;;5051150;28;20547;-58
2021/12/04 08:35:52;;;;;;;5.53;4.60;;;3.80;1.00;;;;;;5052880;28;20652;-56
2021/12/04 08:38:17;;;;;;;6.30;5.30;;;3.90;1.00;;;;;;5052600;28;20234;-55
2021/12/04 08:40:44;;;;;;;6.43;5.50;;;3.80;1.00;;;;;;5051679;28;20255;-57
2021/12/04 08:43:11;;;;;;;5.60;4.53;;;3.90;1.00;;;;;;5050108;28;20635;-56
2021/12/04 08:45:38;;;;;;;5.60;5.00;;;4.00;1.00;;;;;;5051949;28;20434;-57
2021/12/04 08:48:04;;;;;;;7.70;5.30;;;3.90;1.00;;;;;;5052082;28;20489;-56
2021/12/04 08:50:31;;;;;;;6.70;5.50;;;3.90;1.00;;;;;;5055730;28;20462;-56
2021/12/04 08:52:59;;;;;;;6.93;5.30;;;3.90;1.00;;;;;;5051989;28;20457;-59
2021/12/04 08:55:26;;;;;;;6.47;5.30;;;3.90;1.00;;;;;;5055568;28;20494;-55
2021/12/04 08:57:51;;;;;;;4.93;4.40;;;4.00;1.00;;;;;;5056789;28;20450;-55
2021/12/04 09:00:30;;;;;;;6.27;4.90;;;4.00;1.00;;;;;;5052365;28;20449;-54
2021/12/04 09:02:56;;;;;;;7.13;5.87;;;4.00;1.00;;;;;;5052496;28;20277;-56
2021/12/04 09:05:23;;;;;;;5.07;4.57;;;4.00;1.00;;;;;;5056262;28;20453;-55
2021/12/04 09:07:50;;;;;;;5.63;4.47;;;4.00;1.00;;;;;;5051628;28;20800;-54
2021/12/04 09:10:16;;;;;;;5.10;4.40;;;;;;;;;;5052078;28;20443;-56
2021/12/04 09:12:43;;;;;;;4.53;4.13;;;4.00;1.00;;;;;;5050968;28;20446;-55
2021/12/04 09:15:12;;;;;;;4.83;4.33;;;4.00;1.00;;;;;;5051267;28;20479;-55
2021/12/04 09:17:38;;;;;;;4.47;4.07;;;4.10;1.00;;;;;;5050526;28;20434;-55
2021/12/04 09:20:05;;;;;;;5.33;4.23;;;4.10;1.00;;;;;;5063228;28;20442;-57
2021/12/04 09:22:34;;;;;;;4.73;4.23;;;4.10;1.00;;;;;;5051899;28;20538;-57
2021/12/04 09:25:12;;;;;;;3.83;3.27;;;4.20;1.00;;;;;;5052519;28;20459;-56
2021/12/04 10:02:47;;;;;;;3.90;2.90;;;;;;;;;;5050663;28;20491;-55
2021/12/04 10:19:18;;;;;;;4.20;3.17;;;5.10;1.00;;;;;;5050959;28;20796;-55
2021/12/04 10:24:41;;;;;;;3.43;3.13;;;5.30;1.00;;;;;;5054901;28;20438;-56
2021/12/04 10:33:10;;;;;;;2.83;2.60;;;5.60;1.00;;;;;;5049403;28;20875;-59
2021/12/04 10:35:37;;;;;;;4.00;3.40;;;5.80;1.00;;;;;;5047634;28;20445;-56
2021/12/04 10:38:05;;;;;;;6.33;3.27;;;5.80;1.00;;;;;;5043152;28;20440;-58
2021/12/04 10:40:37;;;;;;;4.53;3.23;;;5.90;1.00;;;;;;5045038;28;21001;-55
2021/12/04 10:43:05;;;;;;;3.73;3.37;;;5.90;1.00;;;;;;5049522;28;20504;-58
2021/12/04 10:45:37;;;;;;;3.90;3.50;;;5.80;1.00;;;;;;5050076;28;20558;-57
2021/12/04 10:48:08;;;;;;;6.13;3.50;;;5.90;1.00;;;;;;5057952;28;20434;-57
2021/12/04 10:50:43;;;;;;;3.90;3.07;;;5.90;1.00;;;;;;5051897;28;20948;-57
2021/12/04 10:53:13;;;;;;;3.50;3.20;;;5.90;1.00;;;;;;5058912;28;20450;-57
2021/12/04 10:56:10;;;;;;;3.40;3.10;;;6.00;1.00;;;;;;5052966;28;20449;-59
2021/12/04 11:19:02;;;;;;;8.43;6.67;;;6.20;1.00;;;;;;5052072;28;20446;-56
2021/12/04 11:35:55;;;;;;;3.63;3.03;;;6.00;1.00;;;;;;5055078;28;20532;-56
2021/12/04 11:38:17;;;;;;;3.53;2.83;;;6.00;1.00;;;;;;5054612;28;20457;-55
2021/12/04 11:41:11;;;;;;;3.57;3.27;;;6.00;1.00;;;;;;5062692;28;20805;-55
2021/12/04 11:43:53;;;;;;;3.70;2.97;;;6.10;1.00;;;;;;5056769;28;20441;-55
2021/12/04 11:46:27;;;;;;;3.33;3.03;;;6.10;1.00;;;;;;5068508;28;20453;-57
2021/12/04 11:48:53;;;;;;;3.80;2.70;;;5.90;1.00;;;;;;5049467;28;20592;-55
2021/12/04 11:51:24;;;;;;;3.23;2.93;;;6.00;1.00;;;;;;5056466;28;20512;-55
2021/12/04 11:53:54;;;;;;;4.10;3.80;;;6.10;1.00;;;;;;5046584;28;20202;-57
2021/12/04 11:56:25;;;;;;;3.30;3.00;;;6.10;1.00;;;;;;5059918;28;20490;-57
2021/12/04 11:58:51;;;;;;;4.70;3.83;;;6.20;1.00;;;;;;5048596;28;20852;-56
2021/12/04 12:01:33;;;;;;;4.57;4.17;;;6.10;1.00;;;;;;5059165;28;20550;-57
2021/12/04 12:04:03;;;;;;;4.70;3.80;;;6.20;1.00;;;;;;5073072;28;20600;-56
2021/12/04 12:06:33;;;;;;;4.80;3.33;;;6.20;1.00;;;;;;5070433;28;20487;-58
2021/12/04 12:09:07;;;;;;;5.30;4.30;;;6.20;1.00;;;;;;5052973;28;20825;-59
2021/12/04 12:11:35;;;;;;;6.07;4.53;;;6.20;1.00;;;;;;5052309;28;20568;-58
2021/12/04 12:14:11;;;;;;;4.87;4.17;;;6.40;1.00;;;;;;5052718;28;20447;-58
2021/12/04 12:16:49;;;;;;;7.47;5.47;;;6.30;1.00;;;;;;5058822;28;20524;-57
2021/12/04 12:19:28;;;;;;;5.93;4.87;;;6.30;1.00;;;;;;5053013;28;20524;-57
2021/12/04 12:33:18;;;;;;;7.97;6.60;;;5.80;1.00;;;;;;5046114;28;20813;-55
2021/12/04 12:36:09;;;;;;;6.27;5.50;;;5.80;1.00;;;;;;5059978;28;20434;-56
2021/12/04 12:38:52;;;;;;;7.17;6.23;;;5.90;1.00;;;;;;5053158;28;20787;-57
2021/12/04 12:41:26;;;;;;;8.40;5.43;;;6.00;1.00;;;;;;5052260;28;20494;-58
2021/12/04 12:44:10;;;;;;;6.20;5.57;;;6.00;1.00;;;;;;5051875;28;20430;-58
2021/12/04 12:47:02;;;;;;;5.93;5.30;;;6.00;1.00;;;;;;5054320;28;20638;-58
2021/12/04 12:49:38;;;;;;;7.63;5.97;;;5.90;1.00;;;;;;5066080;28;20430;-56
2021/12/04 12:52:10;;;;;;;8.97;6.57;;;5.90;1.00;;;;;;5052508;28;20450;-57
2021/12/04 12:54:50;;;;;;;7.20;6.50;;;5.90;1.00;;;;;;5058531;28;20976;-56
2021/12/04 12:57:29;;;;;;;8.57;7.67;;;6.10;1.00;;;;;;5046298;28;20443;-58
2021/12/04 13:11:45;;;;;;;7.30;6.60;;;6.30;1.00;;;;;;5054809;28;20446;-57
2021/12/04 13:14:17;;;;;;;7.87;7.07;;;6.20;1.00;;;;;;5053156;28;20505;-57
2021/12/04 13:16:51;;;;;;;7.77;6.87;;;6.10;1.00;;;;;;5056451;28;20493;-56
2021/12/04 13:19:19;;;;;;;8.57;7.33;;;6.00;1.00;;;;;;5064775;28;20450;-57
2021/12/04 13:21:49;;;;;;;8.83;7.93;;;6.00;1.00;;;;;;5052420;28;20553;-60
2021/12/04 13:24:16;;;;;;;8.90;7.70;;;5.90;1.00;;;;;;5050897;28;20802;-56
2021/12/04 13:26:45;;;;;;;8.10;7.10;;;5.90;1.00;;;;;;5051814;28;20480;-57
2021/12/04 13:29:15;;;;;;;8.23;7.37;;;5.70;1.00;;;;;;5050799;28;20785;-59
2021/12/04 13:31:41;;;;;;;9.40;7.00;;;5.60;1.00;;;;;;5051884;28;20451;-57
2021/12/04 13:34:08;;;;;;;8.83;7.00;;;5.50;1.00;;;;;;5050936;28;20515;-58
2021/12/04 13:36:35;;;;;;;8.90;8.00;;;5.40;1.00;;;;;;5050917;28;20447;-59
2021/12/04 13:39:12;;;;;;;9.70;8.30;;;5.30;1.00;;;;;;5052112;28;20977;-58
2021/12/04 13:41:40;;;;;;;9.10;8.00;;;5.40;1.00;;;;;;5056687;28;20468;-59
2021/12/04 13:44:08;;;;;;;10.17;8.80;;;5.30;1.00;;;;;;5051992;28;20524;-59
2021/12/04 13:46:48;;;;;;;11.30;7.73;;;5.30;1.00;;;;;;5054502;28;20900;-61
2021/12/04 13:49:18;;;;;;;11.70;9.40;;;5.20;1.00;;;;;;5043904;28;20443;-61
2021/12/04 13:51:55;;;;;;;9.50;7.27;;;5.20;1.00;;;;;;5048321;28;20800;-62
2021/12/04 13:54:21;;;;;;;8.53;7.57;;;5.10;1.00;;;;;;5050474;28;20442;-60
2021/12/04 13:56:48;;;;;;;8.00;7.20;;;;;;;;;;5047490;28;20496;-61
2021/12/04 13:59:14;;;;;;;8.00;7.00;;;5.10;1.00;;;;;;5053565;28;20454;-61
2021/12/04 14:01:42;;;;;;;8.63;6.60;;;5.10;1.00;;;;;;5057834;28;20952;-60
2021/12/04 14:04:17;;;;;;;10.03;7.60;;;5.10;1.00;;;;;;5053577;28;20513;-61
2021/12/04 14:06:56;;;;;;;8.00;6.50;;;4.90;1.00;;;;;;5050691;28;20522;-62
2021/12/04 14:09:23;;;;;;;7.63;6.60;;;5.00;1.00;;;;;;5050214;28;20489;-60
2021/12/04 14:11:51;;;;;;;7.73;6.60;;;4.90;1.00;;;;;;5050876;28;20525;-62
2021/12/04 14:14:20;;;;;;;10.03;7.47;;;4.90;1.00;;;;;;5047872;28;20473;-64
2021/12/04 14:16:50;;;;;;;8.77;7.40;;;4.90;1.00;;;;;;5057299;28;20937;-63
2021/12/04 14:19:25;;;;;;;9.40;8.33;;;4.80;1.00;;;;;;5059927;28;20450;-60
2021/12/04 14:21:59;;;;;;;9.20;7.23;;;4.70;1.00;;;;;;5051117;28;20562;-61
2021/12/04 14:24:32;;;;;;;12.33;8.27;;;4.70;1.00;;;;;;5049404;28;20496;-64
2021/12/04 14:27:00;;;;;;;9.40;7.47;;;4.70;1.00;;;;;;5054998;28;20549;-62
2021/12/04 14:29:37;;;;;;;8.33;7.07;;;4.60;1.00;;;;;;5050253;28;20513;-62
2021/12/04 14:32:04;;;;;;;9.60;6.73;;;4.60;1.00;;;;;;5045256;28;20465;-62
2021/12/04 14:34:30;;;;;;;9.03;7.30;;;4.60;1.00;;;;;;5049404;28;20452;-61
2021/12/04 14:37:16;;;;;;;8.80;7.90;;;4.50;1.00;;;;;;5050540;28;20512;-62
2021/12/04 14:39:46;;;;;;;8.67;7.83;;;4.40;1.00;;;;;;5048531;28;20463;-61
2021/12/04 14:42:27;;;;;;;9.07;7.80;;;4.40;1.00;;;;;;5056282;28;20462;-62
2021/12/04 14:44:59;;;;;;;9.70;7.87;;;4.30;1.00;;;;;;5044579;28;20478;-61
2021/12/04 14:47:32;;;;;;;8.63;7.30;;;4.30;1.00;;;;;;5045087;28;20446;-62
2021/12/04 14:50:00;;;;;;;9.33;7.53;;;4.20;1.00;;;;;;5050035;28;20827;-61
2021/12/04 14:52:28;;;;;;;8.97;7.50;;;4.20;1.00;;;;;;5048104;28;20456;-61
2021/12/04 14:54:57;;;;;;;9.00;7.60;;;4.20;1.00;;;;;;5049869;28;20449;-61
2021/12/04 14:57:28;;;;;;;9.67;8.67;;;4.20;1.00;;;;;;5049744;28;20477;-60
2021/12/04 15:00:08;;;;;;;8.93;7.60;;;4.20;1.00;;;;;;5048208;28;20456;-62
2021/12/04 15:02:34;;;;;;;10.70;7.97;;;4.10;1.00;;;;;;5049109;28;20473;-62
2021/12/04 15:04:59;;;;;;;10.13;7.30;;;4.00;1.00;;;;;;5052693;28;20460;-60
2021/12/04 15:07:28;;;;;;;11.50;8.20;;;4.00;1.00;;;;;;5052906;28;20448;-61
2021/12/04 15:09:54;;;;;;;9.63;8.33;;;4.00;1.00;;;;;;5045558;28;20188;-61
2021/12/04 15:12:40;;;;;;;10.70;9.60;;;4.00;1.00;;;;;;5043425;28;20471;-61
2021/12/04 15:15:08;;;;;;;8.80;7.90;;;3.90;1.00;;;;;;5050416;28;20442;-59
2021/12/04 15:17:34;;;;;;;7.67;6.57;;;4.00;1.00;;;;;;5041614;28;20968;-60
2021/12/04 15:20:05;;;;;;;11.70;8.90;;;3.90;1.00;;;;;;5042082;28;20448;-60
2021/12/04 15:22:42;;;;;;;9.93;8.70;;;3.90;1.00;;;;;;5041800;28;20471;-60
2021/12/04 15:25:14;;;;;;;10.40;8.27;;;3.90;1.00;;;;;;5041158;28;20447;-62
2021/12/04 15:27:40;;;;;;;11.07;8.40;;;3.90;1.00;;;;;;5052252;28;20470;-60
2021/12/04 15:30:10;;;;;;;9.27;8.23;;;3.80;1.00;;;;;;5049750;28;20950;-60
2021/12/04 15:32:39;;;;;;;10.17;8.23;;;3.70;1.00;;;;;;5042009;28;20444;-60
2021/12/04 15:35:24;;;;;;;9.70;8.53;;;3.70;1.00;;;;;;5042789;28;20679;-60
2021/12/04 15:38:02;;;;;;;11.27;9.33;;;3.70;1.00;;;;;;5053297;28;20449;-61
2021/12/04 15:43:26;;;;;;;11.97;9.23;;;3.80;1.00;;;;;;5041042;28;20863;-60
2021/12/04 15:48:54;;;;;;;13.13;9.53;;;3.80;1.00;;;;;;5052333;28;20539;-59
2021/12/04 15:54:11;;;;;;;11.10;8.57;;;3.80;1.00;;;;;;5053000;28;20493;-61
2021/12/04 15:56:45;;;;;;;11.33;9.27;;;3.70;1.00;;;;;;5050910;28;20519;-62
2021/12/04 15:59:16;;;;;;;13.80;10.20;;;3.70;1.00;;;;;;5053485;28;20448;-63
2021/12/04 16:01:42;;;;;;;13.70;9.10;;;3.70;1.00;;;;;;5050847;28;20931;-60
2021/12/04 16:04:27;;;;;;;14.07;10.20;;;3.70;1.00;;;;;;5052505;28;20537;-60
2021/12/04 16:06:53;;;;;;;11.50;8.77;;;3.70;1.00;;;;;;5047948;28;21015;-61
2021/12/04 16:09:37;;;;;;;13.10;10.20;;;3.80;1.00;;;;;;5052657;28;20499;-60
2021/12/04 16:12:14;;;;;;;10.67;8.43;;;3.80;1.00;;;;;;5051870;28;20440;-60
2021/12/04 16:14:44;;;;;;;12.67;8.73;;;3.80;1.00;;;;;;5051701;28;20453;-59
2021/12/04 16:17:11;;;;;;;11.53;9.20;;;3.80;1.00;;;;;;5052679;28;20441;-61
2021/12/04 16:19:39;;;;;;;11.17;8.20;;;3.80;1.00;;;;;;5056670;28;20457;-60
2021/12/04 16:22:09;;;;;;;11.77;9.13;;;3.80;1.00;;;;;;5052705;28;21030;-61
2021/12/04 16:24:38;;;;;;;15.70;10.07;;;3.90;1.00;;;;;;5052048;28;21028;-61
2021/12/04 16:27:13;;;;;;;10.73;7.67;;;3.90;1.00;;;;;;5051493;28;21076;-61